createdAt,value
2022-12-18T00:01:26.014Z,-1.71
2022-12-18T00:03:56.232Z,-1.65
2022-12-18T00:06:26.613Z,-1.63
2022-12-18T00:08:56.080Z,-1.70
2022-12-18T00:11:27.328Z,-1.62
2022-12-18T00:13:56.857Z,-1.67
2022-12-18T00:16:26.185Z,-1.65
2022-12-18T00:19:00.360Z,-1.55
2022-12-18T00:21:30.068Z,-1.63
2022-12-18T00:23:58.592Z,-1.62
2022-12-18T00:26:31.345Z,-1.62
2022-12-18T00:29:02.367Z,-1.59
2022-12-18T00:31:31.616Z,-1.59
2022-12-18T00:34:00.293Z,-1.84
2022-12-18T00:36:31.092Z,-1.71
2022-12-18T00:39:00.798Z,-1.70
2022-12-18T00:41:47.842Z,-1.73
2022-12-18T00:44:18.233Z,-1.69
2022-12-18T00:46:47.157Z,-1.81
2022-12-18T00:49:16.571Z,-1.99
2022-12-18T00:51:44.379Z,-1.85
2022-12-18T00:54:12.364Z,-1.87
2022-12-18T00:56:48.370Z,-1.81
2022-12-18T00:59:18.768Z,-1.63
2022-12-18T01:01:47.671Z,-1.68
2022-12-18T01:04:15.898Z,-1.42
2022-12-18T01:06:46.307Z,-1.24
2022-12-18T01:09:14.127Z,-1.18
2022-12-18T01:11:41.552Z,-1.32
2022-12-18T01:14:09.764Z,-1.18
2022-12-18T01:16:38.719Z,-1.43
2022-12-18T01:19:06.251Z,-1.32
2022-12-18T01:21:34.484Z,-1.46
2022-12-18T01:24:05.765Z,-1.02
2022-12-18T01:26:33.257Z,-1.17
2022-12-18T01:29:00.993Z,-1.18
2022-12-18T01:31:32.510Z,-1.36
2022-12-18T01:34:03.027Z,-1.12
2022-12-18T01:36:34.169Z,-0.99
2022-12-18T01:39:06.334Z,-0.94
2022-12-18T01:41:54.661Z,-1.32
2022-12-18T01:44:59.016Z,-1.51
2022-12-18T01:47:29.558Z,-1.59
2022-12-18T01:50:00.421Z,-1.62
2022-12-18T01:52:31.866Z,-1.25
2022-12-18T01:55:01.339Z,-1.01
2022-12-18T01:57:29.808Z,-1.06
2022-12-18T02:00:04.081Z,-0.83
2022-12-18T02:02:42.120Z,-0.79
2022-12-18T02:05:12.630Z,-0.76
2022-12-18T02:08:02.790Z,-0.65
2022-12-18T02:10:43.734Z,-0.79
2022-12-18T02:13:39.495Z,-0.56
2022-12-18T02:16:10.256Z,-0.45
2022-12-18T02:18:45.355Z,-0.43
2022-12-18T02:21:22.032Z,-0.50
2022-12-18T02:24:01.517Z,-0.51
2022-12-18T02:26:42.215Z,-0.38
2022-12-18T02:29:16.462Z,-0.45
2022-12-18T02:31:50.036Z,-0.35
2022-12-18T02:34:20.636Z,-0.27
2022-12-18T02:36:50.947Z,-0.28
2022-12-18T02:39:23.038Z,-0.14
2022-12-18T02:41:52.320Z,-0.26
2022-12-18T02:44:21.523Z,-0.61
2022-12-18T02:46:54.114Z,-0.36
2022-12-18T02:49:28.740Z,-0.40
2022-12-18T02:52:25.727Z,-0.83
2022-12-18T02:55:13.415Z,-0.53
2022-12-18T02:57:50.597Z,-0.40
2022-12-18T03:00:30.587Z,-0.41
2022-12-18T03:03:07.127Z,-0.84
2022-12-18T03:05:40.327Z,-0.59
2022-12-18T03:08:20.051Z,-0.46
2022-12-18T03:11:05.714Z,-0.39
2022-12-18T03:13:38.463Z,-0.79
2022-12-18T03:16:10.390Z,-0.61
2022-12-18T03:18:42.141Z,-0.77
2022-12-18T03:21:12.875Z,-0.96
2022-12-18T03:23:49.352Z,-0.73
2022-12-18T03:26:23.381Z,-0.82
2022-12-18T03:28:57.575Z,-0.52
2022-12-18T03:31:30.348Z,-0.73
2022-12-18T03:34:09.623Z,-0.46
2022-12-18T03:36:39.070Z,-0.40
2022-12-18T03:39:06.804Z,-0.26
2022-12-18T03:41:44.372Z,-0.37
2022-12-18T03:44:21.795Z,-0.49
2022-12-18T03:46:59.139Z,-0.26
2022-12-18T03:49:54.907Z,-0.42
2022-12-18T03:52:29.459Z,-0.53
2022-12-18T03:55:00.775Z,-0.41
2022-12-18T03:57:31.311Z,-0.41
2022-12-18T04:00:11.979Z,-0.92
2022-12-18T04:02:47.170Z,-0.49
2022-12-18T04:05:16.850Z,-0.54
2022-12-18T04:07:46.134Z,-0.70
2022-12-18T04:10:16.807Z,-0.66
2022-12-18T04:12:45.228Z,-0.60
2022-12-18T04:15:13.299Z,-0.59
2022-12-18T04:17:48.244Z,-0.49
2022-12-18T04:20:16.935Z,-0.41
2022-12-18T04:22:44.719Z,-0.37
2022-12-18T04:25:12.217Z,-0.34
2022-12-18T04:27:40.978Z,-0.29
2022-12-18T04:30:09.887Z,-0.31
2022-12-18T04:32:37.843Z,-0.22
2022-12-18T04:35:07.661Z,-0.33
2022-12-18T04:37:35.851Z,-0.34
2022-12-18T04:40:04.164Z,-0.33
2022-12-18T04:42:32.742Z,-0.11
2022-12-18T04:45:00.191Z,-0.16
2022-12-18T04:47:27.645Z,-0.11
2022-12-18T04:49:55.490Z,-0.05
2022-12-18T04:52:25.906Z,-0.13
2022-12-18T04:54:53.312Z,-0.05
2022-12-18T04:57:21.001Z,-0.05
2022-12-18T04:59:48.548Z,-0.10
2022-12-18T05:02:16.088Z,-0.13
2022-12-18T05:04:43.984Z,-0.04
2022-12-18T05:07:11.414Z,-0.10
2022-12-18T05:09:38.863Z,-0.15
2022-12-18T05:12:06.739Z,-0.23
2022-12-18T05:14:34.136Z,-0.29
2022-12-18T05:17:01.588Z,-0.30
2022-12-18T05:19:29.358Z,-0.38
2022-12-18T05:21:56.784Z,-0.41
2022-12-18T05:24:24.231Z,-0.51
2022-12-18T05:26:52.023Z,-0.63
2022-12-18T05:29:19.421Z,-0.61
2022-12-18T05:31:46.962Z,-0.71
2022-12-18T05:34:14.842Z,-0.77
2022-12-18T05:36:42.415Z,-0.82
2022-12-18T05:39:10.559Z,-0.94
2022-12-18T05:41:38.367Z,-0.90
2022-12-18T05:44:06.103Z,-0.86
2022-12-18T05:46:33.687Z,-1.11
2022-12-18T05:49:02.236Z,-1.16
2022-12-18T05:51:29.738Z,-1.21
2022-12-18T05:53:57.271Z,-1.10
2022-12-18T05:56:25.064Z,-1.14
2022-12-18T05:58:54.419Z,-1.13
2022-12-18T06:01:26.402Z,-1.22
2022-12-18T06:03:54.549Z,-1.27
2022-12-18T06:06:25.339Z,-1.27
2022-12-18T06:08:53.976Z,-1.41
2022-12-18T06:11:24.771Z,-1.28
2022-12-18T06:13:58.881Z,-1.40
2022-12-18T06:16:28.894Z,-1.37
2022-12-18T06:19:04.519Z,-1.49
2022-12-18T06:21:33.199Z,-1.58
2022-12-18T06:24:01.527Z,-1.40
2022-12-18T06:26:28.995Z,-1.44
2022-12-18T06:28:56.981Z,-1.59
2022-12-18T06:31:25.983Z,-1.39
2022-12-18T06:33:54.043Z,-1.46
2022-12-18T06:36:22.278Z,-1.54
2022-12-18T06:38:50.184Z,-1.48
2022-12-18T06:41:20.358Z,-1.37
2022-12-18T06:43:48.281Z,-1.53
2022-12-18T06:46:16.160Z,-1.72
2022-12-18T06:48:43.751Z,-1.51
2022-12-18T06:51:11.534Z,-1.28
2022-12-18T06:53:39.232Z,-1.20
2022-12-18T06:56:10.710Z,-1.11
2022-12-18T06:58:40.091Z,-1.15
2022-12-18T07:01:11.037Z,-1.17
2022-12-18T07:03:41.491Z,-1.19
2022-12-18T07:06:20.659Z,-1.76
2022-12-18T07:08:49.649Z,-1.61
2022-12-18T07:11:18.408Z,-1.41
2022-12-18T07:13:46.985Z,-1.23
2022-12-18T07:16:24.860Z,-1.38
2022-12-18T07:18:55.633Z,-1.49
2022-12-18T07:21:24.913Z,-1.46
2022-12-18T07:23:53.148Z,-1.63
2022-12-18T07:26:22.252Z,-1.53
2022-12-18T07:28:50.279Z,-1.52
2022-12-18T07:31:22.688Z,-1.12
2022-12-18T07:33:51.537Z,-1.04
2022-12-18T07:36:19.416Z,-1.53
2022-12-18T07:38:50.785Z,-1.25
2022-12-18T07:41:19.639Z,-1.27
2022-12-18T07:43:47.648Z,-0.87
2022-12-18T07:46:16.680Z,-1.07
2022-12-18T07:48:46.295Z,-0.95
2022-12-18T07:51:19.384Z,-0.90
2022-12-18T07:53:52.254Z,-0.88
2022-12-18T07:56:29.561Z,-0.63
2022-12-18T07:58:59.874Z,-0.43
2022-12-18T08:01:27.856Z,-0.62
2022-12-18T08:03:55.996Z,-0.44
2022-12-18T08:06:24.221Z,-0.26
2022-12-18T08:08:56.345Z,-0.59
2022-12-18T08:11:25.934Z,-0.43
2022-12-18T08:13:53.988Z,-0.20
2022-12-18T08:16:22.953Z,-0.48
2022-12-18T08:18:53.727Z,-0.31
2022-12-18T08:21:25.808Z,-0.25
2022-12-18T08:23:55.258Z,-0.57
2022-12-18T08:26:23.727Z,-0.39
2022-12-18T08:28:52.363Z,-0.21
2022-12-18T08:31:21.032Z,-0.35
2022-12-18T08:33:51.417Z,-0.07
2022-12-18T08:36:20.547Z,-0.53
2022-12-18T08:38:48.425Z,-0.21
2022-12-18T08:41:18.195Z,-0.18
2022-12-18T08:44:04.374Z,-0.03
2022-12-18T08:46:36.198Z,-0.38
2022-12-18T08:49:04.816Z,0.08
2022-12-18T08:51:32.716Z,0.12
2022-12-18T08:54:00.619Z,0.08
2022-12-18T08:56:28.055Z,0.16
2022-12-18T08:58:56.047Z,0.21
2022-12-18T09:01:23.870Z,0.47
2022-12-18T09:03:52.031Z,0.50
2022-12-18T09:06:21.376Z,0.42
2022-12-18T09:08:48.901Z,0.49
2022-12-18T09:11:22.288Z,0.61
2022-12-18T09:13:51.330Z,0.53
2022-12-18T09:16:19.272Z,0.13
2022-12-18T09:18:47.863Z,0.40
2022-12-18T09:21:21.458Z,0.51
2022-12-18T09:23:53.259Z,0.67
2022-12-18T09:26:22.627Z,0.77
2022-12-18T09:28:51.257Z,0.58
2022-12-18T09:31:21.607Z,0.71
2022-12-18T09:33:49.386Z,0.69
2022-12-18T09:36:18.577Z,0.70
2022-12-18T09:38:46.126Z,0.45
2022-12-18T09:41:32.059Z,1.01
2022-12-18T09:44:19.671Z,0.55
2022-12-18T09:46:54.896Z,0.68
2022-12-18T09:49:27.507Z,0.94
2022-12-18T09:51:58.236Z,1.17
2022-12-18T09:54:33.966Z,1.34
2022-12-18T09:57:02.106Z,0.97
2022-12-18T09:59:40.834Z,1.22
2022-12-18T10:02:23.858Z,0.92
2022-12-18T10:05:15.398Z,1.20
2022-12-18T10:08:03.028Z,1.33
2022-12-18T10:10:42.932Z,1.15
2022-12-18T10:13:29.384Z,1.23
2022-12-18T10:16:27.598Z,1.50
2022-12-18T10:19:16.480Z,1.33
2022-12-18T10:21:51.284Z,1.37
2022-12-18T10:24:21.624Z,1.82
2022-12-18T10:26:49.420Z,2.04
2022-12-18T10:29:18.019Z,2.02
2022-12-18T10:31:45.491Z,2.33
2022-12-18T10:34:16.412Z,2.31
2022-12-18T10:36:44.094Z,2.25
2022-12-18T10:39:24.086Z,2.53
2022-12-18T10:41:52.816Z,2.44
2022-12-18T10:44:30.432Z,2.37
2022-12-18T10:47:10.068Z,2.35
2022-12-18T10:49:43.100Z,2.19
2022-12-18T10:52:23.697Z,2.52
2022-12-18T10:55:04.172Z,2.57
2022-12-18T10:57:37.986Z,2.51
2022-12-18T11:00:28.632Z,2.66
2022-12-18T11:02:57.345Z,2.65
2022-12-18T11:05:34.987Z,2.59
2022-12-18T11:08:02.987Z,2.77
2022-12-18T11:10:36.547Z,2.87
2022-12-18T11:13:32.536Z,3.09
2022-12-18T11:16:00.610Z,3.20
2022-12-18T11:18:34.909Z,3.25
2022-12-18T11:21:12.009Z,3.27
2022-12-18T11:23:50.359Z,2.97
2022-12-18T11:26:18.543Z,3.09
2022-12-18T11:28:51.572Z,3.07
2022-12-18T11:31:20.998Z,3.17
2022-12-18T11:34:28.682Z,3.08
2022-12-18T11:37:00.591Z,3.21
2022-12-18T11:39:34.488Z,3.02
2022-12-18T11:42:35.718Z,2.82
2022-12-18T11:45:31.609Z,2.80
2022-12-18T11:48:10.137Z,3.11
2022-12-18T11:50:38.408Z,2.92
2022-12-18T11:53:10.273Z,3.00
2022-12-18T11:56:00.777Z,3.19
2022-12-18T11:58:54.611Z,2.84
2022-12-18T12:01:44.674Z,2.94
2022-12-18T12:04:37.176Z,3.09
2022-12-18T12:07:12.185Z,3.06
2022-12-18T12:09:47.000Z,3.09
2022-12-18T12:12:58.512Z,2.88
2022-12-18T12:15:44.105Z,3.05
2022-12-18T12:18:16.567Z,3.10
2022-12-18T12:21:04.628Z,3.16
2022-12-18T12:23:40.968Z,3.12
2022-12-18T12:26:30.866Z,3.20
2022-12-18T12:29:27.652Z,3.20
2022-12-18T12:32:13.573Z,3.12
2022-12-18T12:35:09.818Z,3.06
2022-12-18T12:37:37.576Z,3.07
2022-12-18T12:40:26.786Z,3.06
2022-12-18T12:43:13.633Z,3.00
2022-12-18T12:46:01.983Z,2.96
2022-12-18T12:48:38.066Z,3.15
2022-12-18T12:51:29.704Z,3.07
2022-12-18T12:54:00.493Z,3.08
2022-12-18T12:56:47.032Z,3.01
2022-12-18T12:59:32.727Z,3.16
2022-12-18T13:02:16.731Z,3.22
2022-12-18T13:04:50.109Z,2.94
2022-12-18T13:07:59.384Z,3.05
2022-12-18T13:10:33.528Z,2.99
2022-12-18T13:13:13.417Z,3.02
2022-12-18T13:15:51.283Z,2.66
2022-12-18T13:18:24.874Z,2.75
2022-12-18T13:21:01.207Z,2.89
2022-12-18T13:23:41.725Z,2.99
2022-12-18T13:26:23.224Z,2.58
2022-12-18T13:28:57.892Z,2.69
2022-12-18T13:31:32.059Z,2.72
2022-12-18T13:34:26.106Z,2.76
2022-12-18T13:36:57.281Z,2.58
2022-12-18T13:39:34.765Z,2.47
2022-12-18T13:42:06.372Z,2.57
2022-12-18T13:44:40.902Z,2.45
2022-12-18T13:47:33.772Z,2.56
2022-12-18T13:50:10.145Z,2.56
2022-12-18T13:52:40.490Z,2.55
2022-12-18T13:55:18.844Z,2.57
2022-12-18T13:57:47.092Z,2.56
2022-12-18T14:00:32.102Z,2.36
2022-12-18T14:03:01.021Z,2.34
2022-12-18T14:05:32.160Z,2.35
2022-12-18T14:08:11.149Z,2.30
2022-12-18T14:10:48.521Z,2.18
2022-12-18T14:13:39.123Z,2.30
2022-12-18T14:16:08.628Z,2.20
2022-12-18T14:18:47.473Z,2.18
2022-12-18T14:21:30.322Z,2.12
2022-12-18T14:24:08.161Z,2.18
2022-12-18T14:26:35.693Z,2.01
2022-12-18T14:29:24.690Z,1.97
2022-12-18T14:32:17.742Z,1.98
2022-12-18T14:34:48.368Z,2.01
2022-12-18T14:37:21.068Z,1.90
2022-12-18T14:39:58.076Z,1.80
2022-12-18T14:42:29.132Z,1.67
2022-12-18T14:45:42.621Z,1.66
2022-12-18T14:48:38.805Z,1.58
2022-12-18T14:51:21.678Z,1.50
2022-12-18T14:53:55.841Z,1.52
2022-12-18T14:56:27.132Z,1.44
2022-12-18T14:58:57.355Z,1.31
2022-12-18T15:01:29.253Z,1.35
2022-12-18T15:03:58.689Z,1.29
2022-12-18T15:06:31.419Z,1.21
2022-12-18T15:09:01.465Z,1.20
2022-12-18T15:11:30.725Z,1.10
2022-12-18T15:13:59.658Z,1.04
2022-12-18T15:16:27.781Z,1.07
2022-12-18T15:18:55.991Z,0.93
2022-12-18T15:21:24.688Z,0.74
2022-12-18T15:23:53.628Z,0.78
2022-12-18T15:26:23.155Z,0.77
2022-12-18T15:28:56.952Z,0.73
2022-12-18T15:31:37.865Z,0.53
2022-12-18T15:34:08.681Z,0.52
2022-12-18T15:36:37.504Z,0.39
2022-12-18T15:39:06.789Z,0.49
2022-12-18T15:41:36.375Z,0.46
2022-12-18T15:44:24.337Z,0.16
2022-12-18T15:46:52.257Z,0.07
2022-12-18T15:49:20.561Z,0.04
2022-12-18T15:51:53.514Z,0.11
2022-12-18T15:54:40.932Z,0.14
2022-12-18T15:57:26.592Z,0.22
2022-12-18T15:59:59.003Z,-0.05
2022-12-18T16:02:28.950Z,-0.05
2022-12-18T16:04:57.048Z,0.07
2022-12-18T16:07:28.170Z,-0.09
2022-12-18T16:09:58.920Z,-0.08
2022-12-18T16:12:28.533Z,-0.03
2022-12-18T16:14:56.112Z,-0.09
2022-12-18T16:17:23.978Z,-0.15
2022-12-18T16:19:51.730Z,-0.24
2022-12-18T16:22:31.072Z,-0.20
2022-12-18T16:24:59.151Z,-0.38
2022-12-18T16:27:27.120Z,-0.49
2022-12-18T16:29:55.031Z,-0.45
2022-12-18T16:32:24.598Z,-0.34
2022-12-18T16:34:52.521Z,-0.37
2022-12-18T16:37:20.284Z,-0.43
2022-12-18T16:39:48.255Z,-0.43
2022-12-18T16:42:20.056Z,-0.39
2022-12-18T16:44:50.091Z,-0.63
2022-12-18T16:47:18.313Z,-0.48
2022-12-18T16:49:46.643Z,-0.41
2022-12-18T16:52:14.980Z,-0.40
2022-12-18T16:54:42.658Z,-0.44
2022-12-18T16:57:14.265Z,-0.41
2022-12-18T16:59:42.249Z,-0.41
2022-12-18T17:02:15.696Z,-0.66
2022-12-18T17:04:46.336Z,-0.67
2022-12-18T17:07:15.185Z,-0.61
2022-12-18T17:09:43.284Z,-0.70
2022-12-18T17:12:11.309Z,-0.80
2022-12-18T17:14:39.119Z,-0.83
2022-12-18T17:17:20.762Z,-0.73
2022-12-18T17:19:51.248Z,-0.92
2022-12-18T17:22:19.479Z,-0.75
2022-12-18T17:24:47.535Z,-0.77
2022-12-18T17:27:16.669Z,-0.84
2022-12-18T17:29:48.330Z,-1.00
2022-12-18T17:32:18.116Z,-0.90
2022-12-18T17:34:46.068Z,-1.10
2022-12-18T17:37:13.703Z,-1.06
2022-12-18T17:39:42.239Z,-0.94
2022-12-18T17:42:14.582Z,-0.84
2022-12-18T17:44:44.250Z,-1.07
2022-12-18T17:47:14.479Z,-0.93
2022-12-18T17:49:42.244Z,-0.90
2022-12-18T17:52:10.776Z,-1.06
2022-12-18T17:54:41.459Z,-1.16
2022-12-18T17:57:09.302Z,-1.06
2022-12-18T17:59:37.344Z,-1.11
2022-12-18T18:02:05.187Z,-1.29
2022-12-18T18:04:33.903Z,-1.20
2022-12-18T18:07:01.781Z,-1.25
2022-12-18T18:09:29.311Z,-1.33
2022-12-18T18:12:15.768Z,-1.42
2022-12-18T18:14:43.598Z,-1.39
2022-12-18T18:17:11.770Z,-1.36
2022-12-18T18:19:39.694Z,-1.57
2022-12-18T18:22:08.296Z,-1.52
2022-12-18T18:24:36.330Z,-1.75
2022-12-18T18:27:03.844Z,-1.76
2022-12-18T18:29:31.373Z,-1.60
2022-12-18T18:31:59.422Z,-1.60
2022-12-18T18:34:29.399Z,-1.57
2022-12-18T18:37:00.448Z,-1.59
2022-12-18T18:39:28.904Z,-1.85
2022-12-18T18:41:59.415Z,-1.78
2022-12-18T18:44:26.963Z,-1.85
2022-12-18T18:46:58.859Z,-1.60
2022-12-18T18:49:27.895Z,-1.53
2022-12-18T18:51:57.493Z,-1.64
2022-12-18T18:54:26.173Z,-1.41
2022-12-18T18:59:42.737Z,-1.56
2022-12-18T19:02:13.753Z,-1.51
2022-12-18T19:04:45.622Z,-1.59
2022-12-18T19:07:29.333Z,-1.54
2022-12-18T19:10:03.997Z,-1.70
2022-12-18T19:12:52.919Z,-1.46
2022-12-18T19:15:21.652Z,-1.28
2022-12-18T19:17:49.413Z,-1.41
2022-12-18T19:20:18.960Z,-1.39
2022-12-18T19:22:49.836Z,-1.29
2022-12-18T19:25:30.693Z,-1.27
2022-12-18T19:28:17.377Z,-1.29
2022-12-18T19:30:51.439Z,-1.36
2022-12-18T19:33:44.630Z,-1.37
2022-12-18T19:36:19.128Z,-1.36
2022-12-18T19:38:48.954Z,-1.42
2022-12-18T19:41:18.568Z,-1.43
2022-12-18T19:43:46.699Z,-1.54
2022-12-18T19:46:17.581Z,-1.54
2022-12-18T19:48:46.111Z,-1.57
2022-12-18T19:51:16.056Z,-1.61
2022-12-18T19:53:44.324Z,-1.71
2022-12-18T19:56:14.907Z,-1.54
2022-12-18T19:58:44.269Z,-1.66
2022-12-18T20:01:13.996Z,-1.55
2022-12-18T20:03:48.498Z,-1.61
2022-12-18T20:06:28.724Z,-1.73
2022-12-18T20:09:01.290Z,-1.75
2022-12-18T20:11:30.625Z,-1.69
2022-12-18T20:14:01.597Z,-1.87
2022-12-18T20:16:29.671Z,-1.91
2022-12-18T20:18:59.016Z,-1.89
2022-12-18T20:21:27.005Z,-2.18
2022-12-18T20:23:55.827Z,-2.20
2022-12-18T20:26:24.813Z,-2.30
2022-12-18T20:28:53.955Z,-2.33
2022-12-18T20:31:22.641Z,-2.10
2022-12-18T20:33:52.156Z,-2.05
2022-12-18T20:36:23.436Z,-2.11
2022-12-18T20:38:54.728Z,-2.43
2022-12-18T20:41:25.202Z,-2.31
2022-12-18T20:43:53.327Z,-2.10
2022-12-18T20:46:20.892Z,-2.27
2022-12-18T20:48:48.387Z,-2.20
2022-12-18T20:51:19.621Z,-2.21
2022-12-18T20:53:47.600Z,-2.22
2022-12-18T20:56:21.644Z,-2.23
2022-12-18T20:58:50.903Z,-2.23
2022-12-18T21:01:23.897Z,-2.19
2022-12-18T21:03:52.411Z,-2.32
2022-12-18T21:06:21.966Z,-2.37
2022-12-18T21:08:50.438Z,-2.36
2022-12-18T21:11:40.058Z,-2.46
2022-12-18T21:14:17.140Z,-2.74
2022-12-18T21:16:45.586Z,-2.85
2022-12-18T21:19:17.991Z,-2.63
2022-12-18T21:21:47.350Z,-2.63
2022-12-18T21:24:15.463Z,-2.44
2022-12-18T21:26:45.849Z,-2.35
2022-12-18T21:29:25.623Z,-2.32
2022-12-18T21:31:54.599Z,-2.40
2022-12-18T21:34:28.554Z,-2.55
2022-12-18T21:36:58.488Z,-2.47
2022-12-18T21:39:28.104Z,-2.51
2022-12-18T21:42:15.890Z,-2.46
2022-12-18T21:44:44.772Z,-2.49
2022-12-18T21:47:21.651Z,-2.42
2022-12-18T21:49:52.899Z,-2.45
2022-12-18T21:52:25.705Z,-2.34
2022-12-18T21:55:09.044Z,-2.38
2022-12-18T21:57:38.607Z,-2.43
2022-12-18T22:00:10.416Z,-2.52
2022-12-18T22:02:40.697Z,-2.66
2022-12-18T22:05:08.777Z,-2.60
2022-12-18T22:07:36.555Z,-2.42
2022-12-18T22:10:04.611Z,-2.40
2022-12-18T22:12:44.008Z,-2.44
2022-12-18T22:15:16.279Z,-2.39
2022-12-18T22:17:51.238Z,-2.39
2022-12-18T22:20:24.831Z,-2.37
2022-12-18T22:22:54.329Z,-2.39
2022-12-18T22:25:21.753Z,-2.35
2022-12-18T22:28:07.904Z,-2.41
2022-12-18T22:30:35.814Z,-2.42
2022-12-18T22:33:04.011Z,-2.45
2022-12-18T22:35:31.561Z,-2.63
2022-12-18T22:37:59.909Z,-2.71
2022-12-18T22:40:28.143Z,-2.55
2022-12-18T22:42:56.091Z,-2.46
2022-12-18T22:45:25.576Z,-2.65
2022-12-18T22:47:53.427Z,-2.65
2022-12-18T22:50:21.209Z,-2.58
2022-12-18T22:52:48.654Z,-2.57
2022-12-18T22:55:16.353Z,-2.61
2022-12-18T22:57:48.757Z,-2.62
2022-12-18T23:00:23.899Z,-2.61
2022-12-18T23:03:00.339Z,-2.92
2022-12-18T23:05:30.734Z,-2.92
2022-12-18T23:07:58.586Z,-2.96
2022-12-18T23:10:27.273Z,-2.99
2022-12-18T23:12:55.028Z,-2.89
2022-12-18T23:15:27.664Z,-2.80
2022-12-18T23:17:57.786Z,-2.67
2022-12-18T23:20:27.192Z,-2.71
2022-12-18T23:22:54.759Z,-2.98
2022-12-18T23:25:22.584Z,-3.01
2022-12-18T23:27:50.625Z,-3.26
2022-12-18T23:30:18.288Z,-3.20
2022-12-18T23:32:45.998Z,-3.12
2022-12-18T23:35:14.208Z,-3.03
2022-12-18T23:38:00.539Z,-3.07
2022-12-18T23:40:29.491Z,-3.36
2022-12-18T23:42:58.516Z,-3.42
2022-12-18T23:45:26.006Z,-3.31
2022-12-18T23:47:53.909Z,-3.17
2022-12-18T23:50:23.767Z,-3.34
2022-12-18T23:53:00.696Z,-3.56
2022-12-18T23:55:38.577Z,-3.29
2022-12-18T23:58:06.973Z,-3.42
